Time;durP1;ratioP1;P1;durP2;ratioP2;P2;SDS_P1;SDS_P2;PMS_P1;PMS_P2;Temp;Humidity;BMP_temperature;BMP_pressure;BME280_temperature;BME280_humidity;BME280_pressure;Samples;Min_cycle;Max_cycle;Signal;HPM_P1;HPM_P2
2022/12/09 00:00:33;;;;;;;14.90;9.25;;;;;;;;;;5031026;28;20794;-89
2022/12/09 00:02:59;;;;;;;14.47;9.27;;;;;;;;;;5031091;28;20045;-88
2022/12/09 00:05:24;;;;;;;14.73;9.60;;;;;;;;;;5029451;28;20445;-89
2022/12/09 00:07:49;;;;;;;14.70;9.27;;;;;;;;;;5029576;28;20044;-88
2022/12/09 00:10:14;;;;;;;16.40;10.00;;;;;;;;;;5029128;28;20087;-88
2022/12/09 00:12:40;;;;;;;15.47;9.73;;;;;;;;;;5027722;28;20530;-88
2022/12/09 00:15:05;;;;;;;16.70;10.50;;;;;;;;;;5029146;28;20065;-90
2022/12/09 00:17:30;;;;;;;19.38;11.70;;;;;;;;;;5027645;28;20280;-87
2022/12/09 00:19:55;;;;;;;18.57;11.93;;;;;;;;;;5023967;28;20036;-88
2022/12/09 00:22:20;;;;;;;17.87;10.47;;;;;;;;;;5027359;28;20496;-87
2022/12/09 00:24:46;;;;;;;14.93;9.50;;;;;;;;;;5026428;28;20038;-87
2022/12/09 00:27:11;;;;;;;17.42;9.77;;;;;;;;;;5028763;28;20280;-87
2022/12/09 00:29:36;;;;;;;20.13;11.17;;;;;;;;;;5028443;28;20083;-87
2022/12/09 00:32:02;;;;;;;18.77;11.77;;;;;;;;;;5030091;28;20548;-88
2022/12/09 00:34:27;;;;;;;18.42;11.45;;;;;;;;;;5031357;28;20095;-87
2022/12/09 00:36:52;;;;;;;17.98;11.27;;;;;;;;;;5045494;28;20036;-86
2022/12/09 00:39:17;;;;;;;20.77;12.45;;;;;;;;;;5038007;28;20072;-88
2022/12/09 00:41:42;;;;;;;22.13;12.87;;;;;;;;;;5034266;28;20605;-88
2022/12/09 00:44:08;;;;;;;20.77;12.10;;;;;;;-145.24;0.00;87209.31;5030483;28;20094;-87
2022/12/09 00:46:34;;;;;;;16.58;10.82;;;;;;;;;;5029509;28;20041;-89
2022/12/09 00:48:59;;;;;;;21.50;12.45;;;;;;;;;;5029355;28;20029;-89
2022/12/09 00:51:24;;;;;;;18.67;11.70;;;;;;;;;;5030581;28;20136;-88
2022/12/09 00:53:53;;;;;;;21.43;11.97;;;;;;;;;;5028992;28;20283;-89
2022/12/09 00:56:18;;;;;;;20.98;12.23;;;;;;;;;;5027946;28;20364;-88
2022/12/09 00:58:43;;;;;;;18.98;11.45;;;;;;;;;;5028726;28;20120;-88
2022/12/09 01:01:08;;;;;;;20.77;12.03;;;;;;;;;;5028695;28;20029;-89
2022/12/09 01:03:34;;;;;;;19.20;12.33;;;;;;;;;;5028755;28;20046;-91
2022/12/09 01:05:59;;;;;;;25.33;13.40;;;;;;;;;;5028973;28;20277;-88
2022/12/09 01:08:24;;;;;;;21.98;13.48;;;;;;;;;;5028136;28;20045;-89
2022/12/09 01:10:50;;;;;;;21.73;12.18;;;;;;;;;;5029112;28;20049;-88
2022/12/09 01:13:15;;;;;;;20.42;12.52;;;;;;;;;;5030966;28;20040;-88
2022/12/09 01:15:40;;;;;;;20.83;12.40;;;;;;;;;;5029424;28;20061;-89
2022/12/09 01:18:09;;;;;;;22.73;13.55;;;;;;;;;;5028950;28;20116;-88
2022/12/09 01:20:34;;;;;;;19.88;12.32;;;;;;;;;;5029389;28;20672;-88
2022/12/09 01:22:59;;;;;;;18.73;11.52;;;;;;;;;;5029042;28;20088;-88
2022/12/09 01:25:25;;;;;;;20.63;12.32;;;;;;;;;;5028800;28;20034;-89
2022/12/09 01:27:50;;;;;;;20.13;12.00;;;;;;;;;;5028631;28;20412;-89
2022/12/09 01:30:15;;;;;;;18.47;10.93;;;;;;;;;;5028226;28;20048;-88
2022/12/09 01:32:40;;;;;;;18.57;11.10;;;;;;;;;;5031360;28;20065;-88
2022/12/09 01:35:06;;;;;;;20.05;12.55;;;;;;;;;;5032762;28;20300;-88
2022/12/09 01:37:32;;;;;;;22.10;12.38;;;;;;;;;;5032993;28;20544;-88
2022/12/09 01:39:57;;;;;;;18.75;11.80;;;;;;;;;;5033088;28;20033;-88
2022/12/09 01:42:24;;;;;;;22.10;12.17;;;;;;;;;;5032881;28;20034;-87
2022/12/09 01:45:08;;;;;;;20.08;11.88;;;;;;;;;;5033476;28;20272;-88
2022/12/09 01:47:33;;;;;;;18.50;10.93;;;;;;;;;;5033266;28;20038;-88
2022/12/09 01:49:58;;;;;;;20.53;10.67;;;;;;;;;;5033011;28;20038;-88
2022/12/09 01:52:23;;;;;;;19.30;11.30;;;;;;;;;;5033831;28;20635;-88
2022/12/09 01:54:50;;;;;;;18.57;10.90;;;;;;;;;;5033070;28;20128;-88
2022/12/09 01:57:16;;;;;;;18.08;10.45;;;;;;;;;;5032875;28;20125;-88
2022/12/09 01:59:41;;;;;;;18.97;10.80;;;;;;;;;;5032185;28;20742;-89
2022/12/09 02:02:08;;;;;;;23.25;12.20;;;;;;;;;;5032346;28;20997;-88
2022/12/09 02:04:36;;;;;;;21.08;12.40;;;;;;;;;;5033924;28;20128;-88
2022/12/09 02:07:04;;;;;;;19.55;11.65;;;;;;;;;;5032928;28;20071;-88
2022/12/09 02:09:30;;;;;;;18.92;11.68;;;;;;;;;;5032957;28;20034;-89
2022/12/09 02:12:02;;;;;;;20.83;11.32;;;;;;;;;;5032764;28;20127;-88
2022/12/09 02:14:35;;;;;;;20.90;11.80;;;;;;;;;;5032553;28;20091;-88
2022/12/09 02:17:19;;;;;;;20.50;11.23;;;;;;;;;;5032775;28;20038;-88
2022/12/09 02:19:49;;;;;;;21.40;12.63;;;;;;;;;;5032747;28;20102;-88
2022/12/09 02:22:19;;;;;;;21.80;12.17;;;;;;;;;;5032383;28;20112;-88
2022/12/09 02:24:50;;;;;;;21.25;12.15;;;;;;;;;;5033800;28;20029;-88
2022/12/09 02:27:17;;;;;;;21.88;12.68;;;;;;;;;;5032205;28;20037;-88
2022/12/09 02:30:01;;;;;;;23.98;13.52;;;;;;;;;;5031956;28;20564;-88
2022/12/09 02:32:26;;;;;;;24.52;13.02;;;;;;;;;;5031331;28;20041;-88
2022/12/09 02:34:57;;;;;;;21.87;12.70;;;;;;;;;;5031681;28;20034;-90
2022/12/09 02:37:29;;;;;;;19.50;11.38;;;;;;;;;;5032118;28;20030;-89
2022/12/09 02:40:04;;;;;;;19.98;11.98;;;;;;;;;;5033895;28;20025;-89
2022/12/09 02:42:30;;;;;;;22.45;11.80;;;;;;;;;;5032696;28;20516;-88
2022/12/09 02:44:57;;;;;;;21.40;11.70;;;;;;;;;;5022169;28;20045;-89
2022/12/09 02:47:24;;;;;;;23.45;12.60;;;;;;;;;;5011848;28;20029;-90
2022/12/09 02:49:51;;;;;;;22.08;13.10;;;;;;;;;;5018143;28;20042;-88
2022/12/09 02:52:17;;;;;;;20.58;11.73;;;;;;;;;;5030411;28;20454;-89
2022/12/09 02:54:42;;;;;;;24.13;12.90;;;;;;;;;;5030806;28;20037;-89
2022/12/09 02:57:13;;;;;;;21.27;12.32;;;;;;;;;;5030681;28;20029;-89
2022/12/09 02:59:38;;;;;;;25.73;14.43;;;;;;;;;;5022286;28;20041;-89
2022/12/09 03:02:09;;;;;;;20.27;12.57;;;;;;;;;;5028889;28;20034;-89
2022/12/09 03:04:36;;;;;;;21.65;12.07;;;;;;;;;;5019257;28;20299;-89
2022/12/09 03:07:17;;;;;;;24.02;12.80;;;;;;;;;;5025948;28;20046;-88
2022/12/09 03:09:45;;;;;;;26.13;13.55;;;;;;;;;;5021024;28;20041;-88
2022/12/09 03:12:13;;;;;;;23.77;12.82;;;;;;;;;;5016967;28;20041;-88
2022/12/09 03:14:40;;;;;;;24.02;13.02;;;;;;;;;;5019609;28;20046;-88
2022/12/09 03:17:11;;;;;;;24.92;12.73;;;;;;;;;;5020660;28;20420;-88
2022/12/09 03:19:41;;;;;;;21.50;13.02;;;;;;;;;;5026514;28;20034;-87
2022/12/09 03:22:09;;;;;;;24.98;13.50;;;;;;;;;;5027916;28;20570;-88
2022/12/09 03:24:37;;;;;;;23.95;13.50;;;;;;;;;;5026323;28;20038;-88
2022/12/09 03:27:05;;;;;;;21.77;12.57;;;;;;;;;;5020788;28;20065;-88
2022/12/09 03:29:31;;;;;;;21.98;12.20;;;;;;;;;;5028914;28;20060;-89
2022/12/09 03:31:57;;;;;;;22.13;12.15;;;;;;;;;;5029000;28;20118;-88
2022/12/09 03:34:24;;;;;;;23.20;12.27;;;;;;;;;;5022081;28;20057;-88
2022/12/09 03:36:51;;;;;;;21.65;12.38;;;;;;;;;;5025221;28;20095;-88
2022/12/09 03:39:18;;;;;;;21.90;11.25;;;;;;;;;;5017061;28;20046;-89
2022/12/09 03:41:45;;;;;;;21.17;11.90;;;;;;;;;;5025412;28;20030;-88
2022/12/09 03:44:13;;;;;;;21.95;11.85;;;;;;;;;;5029416;28;20044;-88
2022/12/09 03:46:38;;;;;;;21.63;11.88;;;;;;;;;;5029357;28;20107;-87
2022/12/09 03:49:03;;;;;;;21.50;12.00;;;;;;;;;;5029186;28;20489;-88
2022/12/09 03:51:50;;;;;;;20.15;11.68;;;;;;;;;;5029095;28;20280;-88
2022/12/09 03:54:27;;;;;;;22.77;12.35;;;;;;;;;;5027952;28;20057;-88
2022/12/09 03:56:55;;;;;;;22.73;12.85;;;;;;;;;;5031486;28;20265;-86
2022/12/09 03:59:21;;;;;;;24.73;12.77;;;;;;;;;;5036169;28;20159;-86
2022/12/09 04:01:47;;;;;;;22.92;12.20;;;;;;;;;;5036249;28;20045;-86
2022/12/09 04:04:12;;;;;;;20.33;10.98;;;;;;;;;;5036024;28;20061;-87
2022/12/09 04:06:37;;;;;;;21.00;11.00;;;;;;;;;;5046273;28;20041;-85
2022/12/09 04:09:03;;;;;;;19.23;10.60;;;;;;;;;;5055667;28;20036;-86
2022/12/09 04:11:29;;;;;;;21.92;11.27;;;;;;;;;;5036872;28;20045;-87
2022/12/09 04:13:54;;;;;;;18.45;10.90;;;;;;;;;;5035553;28;20053;-86
2022/12/09 04:16:19;;;;;;;19.70;11.47;;;;;;;;;;5033716;28;20063;-86
2022/12/09 04:18:45;;;;;;;19.47;11.00;;;;;;;;;;5035855;28;20044;-86
2022/12/09 04:21:11;;;;;;;17.87;10.60;;;;;;;;;;5025586;28;20976;-86
2022/12/09 04:23:36;;;;;;;20.20;11.02;;;;;;;;;;5034908;28;20045;-86
2022/12/09 04:26:02;;;;;;;20.03;11.00;;;;;;;;;;5034254;28;20041;-86
2022/12/09 04:28:27;;;;;;;19.05;11.45;;;;;;;;;;5036105;28;20431;-86
2022/12/09 04:30:53;;;;;;;18.70;10.83;;;;;;;;;;5034526;28;20037;-86
2022/12/09 04:33:18;;;;;;;17.63;10.43;;;;;;;;;;5022816;28;20131;-87
2022/12/09 04:35:43;;;;;;;18.80;10.97;;;;;;;;;;5027951;28;20037;-87
2022/12/09 04:38:08;;;;;;;19.53;11.83;;;;;;;;;;5022061;28;20525;-88
2022/12/09 04:40:33;;;;;;;16.67;10.67;;;;;;;;;;5018969;28;20037;-87
2022/12/09 04:42:58;;;;;;;19.27;10.83;;;;;;;;;;5024571;28;20273;-87
2022/12/09 04:45:24;;;;;;;18.47;11.47;;;;;;;;;;5022294;28;20481;-87
2022/12/09 04:47:49;;;;;;;18.63;11.27;;;;;;;;;;5027835;28;20128;-87
2022/12/09 04:50:14;;;;;;;19.65;10.38;;;;;;;;;;5023675;28;20704;-87
2022/12/09 04:52:39;;;;;;;18.45;10.55;;;;;;;;;;5015872;28;20030;-87
2022/12/09 04:55:05;;;;;;;18.95;11.55;;;;;;;;;;5022939;28;20112;-87
2022/12/09 04:57:30;;;;;;;18.83;11.00;;;;;;;;;;5023362;28;20045;-87
2022/12/09 04:59:56;;;;;;;14.25;8.90;;;;;;;;;;5028566;28;20034;-87
2022/12/09 05:02:21;;;;;;;15.80;9.83;;;;;;;;;;5025731;28;20061;-88
2022/12/09 05:04:46;;;;;;;17.40;10.23;;;;;;;;;;5027177;28;20042;-87
2022/12/09 05:07:11;;;;;;;18.50;10.10;;;;;;;;;;5021942;28;20132;-88
2022/12/09 05:09:37;;;;;;;17.70;9.68;;;;;;;;;;5013856;28;20528;-88
2022/12/09 05:12:02;;;;;;;15.85;10.15;;;;;;;;;;5021321;28;20050;-88
2022/12/09 05:14:27;;;;;;;15.35;9.43;;;;;;;;;;5020639;28;20054;-87
2022/12/09 05:16:52;;;;;;;15.87;9.53;;;;;;;;;;5027437;28;20382;-87
2022/12/09 05:19:18;;;;;;;16.37;9.40;;;;;;;;;;5033588;28;20659;-89
2022/12/09 05:21:43;;;;;;;13.23;8.07;;;;;;;;;;5013792;28;20052;-88
2022/12/09 05:24:09;;;;;;;15.33;9.40;;;;;;;;;;5023391;28;20041;-87
2022/12/09 05:26:34;;;;;;;15.02;9.85;;;;;;;;;;5028402;28;20265;-87
2022/12/09 05:28:59;;;;;;;15.75;9.07;;;;;;;;;;5027602;28;20053;-88
2022/12/09 05:31:24;;;;;;;15.35;9.45;;;;;;;;;;5018433;28;20547;-88
2022/12/09 05:33:50;;;;;;;17.43;11.20;;;;;;;;;;5022954;28;20038;-87
2022/12/09 05:36:16;;;;;;;17.95;10.38;;;;;;;;;;5020170;28;20121;-89
2022/12/09 05:38:42;;;;;;;22.25;11.40;;;;;;;;;;5026472;28;20043;-88
2022/12/09 05:41:07;;;;;;;21.50;12.43;;;;;;;;;;5016026;28;20034;-88
2022/12/09 05:43:33;;;;;;;18.33;11.20;;;;;;;;;;5021720;28;20479;-88
2022/12/09 05:45:59;;;;;;;22.48;12.57;;;;;;;;;;5027592;28;20676;-88
2022/12/09 05:48:24;;;;;;;22.35;12.32;;;;;;;;;;5026770;28;20048;-88
2022/12/09 05:51:00;;;;;;;20.77;11.65;;;;;;;;;;5027051;28;20416;-88
2022/12/09 05:53:25;;;;;;;21.77;12.45;;;;;;;;;;5026691;28;20085;-88
2022/12/09 05:55:51;;;;;;;22.90;12.77;;;;;;;;;;5027909;28;20120;-87
2022/12/09 05:58:16;;;;;;;19.15;11.52;;;;;;;;;;5028153;28;20084;-87
2022/12/09 06:00:41;;;;;;;20.80;12.05;;;;;;;;;;5029742;28;20036;-88
2022/12/09 06:03:07;;;;;;;24.77;13.13;;;;;;;;;;5028345;28;20060;-88
2022/12/09 06:05:32;;;;;;;;;;;;;;;;;;5028211;28;20280;-88
2022/12/09 06:07:57;;;;;;;22.70;11.98;;;;;;;;;;5028766;28;20299;-88
2022/12/09 06:10:22;;;;;;;20.45;11.70;;;;;;;;;;5027764;28;20132;-89
2022/12/09 06:12:48;;;;;;;26.10;13.33;;;;;;;;;;5018177;28;20038;-88
2022/12/09 06:15:13;;;;;;;22.00;13.47;;;;;;;;;;5016151;28;20361;-88
2022/12/09 06:17:38;;;;;;;25.98;13.57;;;;;;;;;;5025773;28;20290;-88
2022/12/09 06:20:04;;;;;;;22.75;13.05;;;;;;;;;;5027580;28;20033;-88
2022/12/09 06:22:29;;;;;;;22.77;12.00;;;;;;;;;;5018485;28;20034;-89
2022/12/09 06:24:55;;;;;;;23.88;12.13;;;;;;;;;;5021667;28;20037;-89
2022/12/09 06:27:20;;;;;;;21.42;12.05;;;;;;;;;;5021835;28;20714;-87
2022/12/09 06:29:45;;;;;;;23.07;12.57;;;;;;;;;;5024563;28;20034;-88
2022/12/09 06:32:11;;;;;;;22.23;12.60;;;;;;;;;;5029086;28;20292;-88
2022/12/09 06:34:36;;;;;;;21.73;11.93;;;;;;;;;;5022066;28;20273;-88
2022/12/09 06:37:01;;;;;;;25.93;13.83;;;;;;;;;;5018332;28;20030;-88
2022/12/09 06:39:26;;;;;;;24.00;13.13;;;;;;;;;;5023676;28;20593;-87
2022/12/09 06:41:52;;;;;;;23.63;12.93;;;;;;;;;;5020918;28;20664;-87
2022/12/09 06:44:17;;;;;;;21.25;12.45;;;;;;;;;;5020556;28;20069;-87
2022/12/09 06:46:42;;;;;;;22.73;13.10;;;;;;;;;;5020460;28;20112;-87
2022/12/09 06:49:07;;;;;;;20.77;12.13;;;;;;;;;;5020778;28;20069;-88
2022/12/09 06:51:33;;;;;;;20.75;12.48;;;;;;;;;;5020069;28;20436;-87
2022/12/09 06:53:58;;;;;;;23.85;12.63;;;;;;;;;;5023427;28;20033;-87
2022/12/09 06:56:23;;;;;;;24.70;13.48;;;;;;;;;;5029324;28;20033;-87
2022/12/09 06:58:49;;;;;;;23.58;13.43;;;;;;;;;;5027491;28;20038;-87
2022/12/09 07:01:18;;;;;;;21.60;12.75;;;;;;;;;;5026023;28;20127;-88
2022/12/09 07:03:45;;;;;;;23.85;15.23;;;;;;;;;;5016216;28;20407;-87
2022/12/09 07:06:18;;;;;;;24.23;16.25;;;;;;;;;;5027510;28;20426;-87
2022/12/09 07:08:43;;;;;;;22.58;15.70;;;;;;;22.40;100.00;87220.34;5028366;28;20548;-87
2022/12/09 07:11:08;;;;;;;20.90;15.40;;;;;;;;;;5028385;28;20427;-88
2022/12/09 07:13:34;;;;;;;19.23;13.75;;;;;;;;;;5026229;28;20933;-87
2022/12/09 07:15:59;;;;;;;20.03;13.77;;;;;;;;;;5029845;28;20926;-88
2022/12/09 07:18:24;;;;;;;17.00;12.03;;;;;;;;;;5022686;28;20453;-87
2022/12/09 07:20:49;;;;;;;19.33;11.83;;;;;;;;;;5030280;28;20041;-87
2022/12/09 07:23:15;;;;;;;20.10;11.65;;;;;;;;;;5032109;28;20036;-88
2022/12/09 07:25:40;;;;;;;24.88;14.88;;;;;;;;;;5032746;28;20042;-87
2022/12/09 07:28:05;;;;;;;26.20;15.53;;;;;;;;;;5018440;28;20088;-87
2022/12/09 07:30:31;;;;;;;19.40;11.80;;;;;;;;;;5024200;28;20061;-86
2022/12/09 07:32:56;;;;;;;20.45;12.00;;;;;;;;;;5023269;28;20076;-86
2022/12/09 07:35:21;;;;;;;22.80;11.75;;;;;;;;;;5029553;28;20505;-86
2022/12/09 07:37:46;;;;;;;21.27;12.47;;;;;;;;;;5029641;28;20044;-87
2022/12/09 07:40:12;;;;;;;21.53;11.60;;;;;;;;;;5021729;28;20049;-87
2022/12/09 07:42:37;;;;;;;18.30;11.10;;;;;;;;;;5029324;28;20413;-87
2022/12/09 07:45:02;;;;;;;20.70;11.27;;;;;;;;;;5033779;28;20775;-87
2022/12/09 07:47:27;;;;;;;18.45;11.10;;;;;;;;;;5032742;28;20045;-86
2022/12/09 07:49:52;;;;;;;20.77;11.27;;;;;;;;;;5030186;28;20049;-86
2022/12/09 07:52:18;;;;;;;19.00;10.70;;;;;;;;;;5028776;28;20284;-86
2022/12/09 07:54:43;;;;;;;21.02;12.23;;;;;;;;;;5029652;28;20053;-86
2022/12/09 07:57:09;;;;;;;19.17;11.05;;;;;;;;;;5029330;28;20551;-86
2022/12/09 07:59:34;;;;;;;16.50;10.50;;;;;;;;;;5029195;28;20084;-86
2022/12/09 08:01:59;;;;;;;18.40;10.90;;;;;;;;;;5026860;28;20125;-86
2022/12/09 08:04:25;;;;;;;17.92;10.13;;;;;;;;;;5020638;28;20294;-87
2022/12/09 08:06:51;;;;;;;21.17;11.57;;;;;;;;;;5025385;28;20120;-86
2022/12/09 08:09:16;;;;;;;19.30;11.27;;;;;;;;;;5030585;28;20049;-86
2022/12/09 08:11:41;;;;;;;21.13;11.67;;;;;;;;;;5028615;28;20068;-86
2022/12/09 08:14:07;;;;;;;20.27;11.57;;;;;;;;;;5030414;28;20033;-86
2022/12/09 08:16:32;;;;;;;18.35;11.35;;;;;;;;;;5012361;28;20461;-87
2022/12/09 08:18:58;;;;;;;22.40;12.63;;;;;;;;;;5028304;28;20072;-87
2022/12/09 08:21:25;;;;;;;20.95;13.23;;;;;;;;;;5018860;28;20041;-86
2022/12/09 08:23:50;;;;;;;20.58;12.65;;;;;;;;;;5028321;28;20037;-88
2022/12/09 08:26:17;;;;;;;18.27;11.25;;;;;;;;;;5028725;28;20075;-87
2022/12/09 08:28:42;;;;;;;19.08;11.48;;;;;;;;;;5026743;28;20254;-87
2022/12/09 08:31:09;;;;;;;20.02;12.40;;;;;;;;;;5024316;28;20558;-87
2022/12/09 08:33:34;;;;;;;17.77;10.95;;;;;;;;;;5024337;28;20052;-87
2022/12/09 08:36:00;;;;;;;20.95;12.02;;;;;;;;;;5026746;28;20408;-88
2022/12/09 08:38:25;;;;;;;21.58;12.40;;;;;;;;;;5028625;28;20033;-87
2022/12/09 08:40:51;;;;;;;19.33;11.70;;;;;;;;;;5023944;28;20034;-87
2022/12/09 08:43:16;;;;;;;19.23;10.93;;;;;;;;;;5020478;28;20128;-87
2022/12/09 08:45:41;;;;;;;20.23;11.13;;;;;;;;;;5023535;28;20034;-87
2022/12/09 08:48:07;;;;;;;24.88;13.73;;;;;;;;;;5017559;28;20286;-87
2022/12/09 08:50:32;;;;;;;22.75;12.75;;;;;;;;;;5019757;28;20052;-86
2022/12/09 08:52:58;;;;;;;21.77;12.35;;;;;;;;;;5023468;28;20054;-87
2022/12/09 08:55:23;;;;;;;21.27;12.40;;;;;;;;;;5020049;28;20502;-87
2022/12/09 08:57:48;;;;;;;18.03;11.50;;;;;;;;;;5026897;28;20045;-87
2022/12/09 09:00:14;;;;;;;20.02;11.63;;;;;;;;;;5026711;28;20671;-87
2022/12/09 09:02:39;;;;;;;19.80;11.90;;;;;;;;;;5026529;28;20111;-87
2022/12/09 09:05:04;;;;;;;20.67;13.03;;;;;;;;;;5017231;28;20037;-87
2022/12/09 09:07:30;;;;;;;22.48;12.27;;;;;;;;;;5025052;28;20054;-87
2022/12/09 09:09:55;;;;;;;18.88;10.88;;;;;;;;;;5026357;28;20041;-86
2022/12/09 09:12:20;;;;;;;16.00;9.43;;;;;;;;;;5024355;28;20120;-87
2022/12/09 09:14:45;;;;;;;17.93;10.13;;;;;;;;;;5026793;28;20781;-86
2022/12/09 09:17:10;;;;;;;19.07;11.37;;;;;;;;;;5023293;28;20737;-87
2022/12/09 09:19:35;;;;;;;18.00;10.73;;;;;;;;;;5027177;28;20096;-89
2022/12/09 09:22:01;;;;;;;18.60;11.47;;;;;;;;;;5021652;28;20509;-87
2022/12/09 09:24:26;;;;;;;;;;;;;;;;;;5024509;28;20049;-87
2022/12/09 09:26:51;;;;;;;19.23;11.77;;;;;;;;;;5013608;28;20373;-88
2022/12/09 09:29:17;;;;;;;16.37;12.00;;;;;;;;;;5008332;28;20408;-87
2022/12/09 09:31:43;;;;;;;15.10;10.90;;;;;;;;;;5019947;28;20507;-87
2022/12/09 09:34:08;;;;;;;16.40;12.30;;;;;;;;;;5016309;28;21013;-87
2022/12/09 09:36:33;;;;;;;16.30;12.70;;;;;;;;;;5023751;28;20398;-87
2022/12/09 09:38:59;;;;;;;19.47;13.77;;;;;;;;;;5028498;28;20405;-87
2022/12/09 09:41:33;;;;;;;21.27;12.90;;;;;;;;;;5027290;28;20276;-88
2022/12/09 09:43:58;;;;;;;20.77;12.70;;;;;;;;;;5029260;28;20272;-88
2022/12/09 09:46:35;;;;;;;21.88;13.20;;;;;;;;;;5027227;28;20509;-87
2022/12/09 09:49:02;;;;;;;20.20;12.55;;;;;;;;;;5029499;28;20041;-87
2022/12/09 09:51:28;;;;;;;22.38;13.00;;;;;;;;;;5029637;28;20515;-87
2022/12/09 09:53:53;;;;;;;20.15;11.57;;;;;;;;;;5033952;28;20041;-87
2022/12/09 09:56:27;;;;;;;19.02;12.20;;;;;;;;;;5033298;28;20029;-87
2022/12/09 09:59:02;;;;;;;17.42;10.65;;;;;;;;;;5033049;28;20115;-87
2022/12/09 10:01:34;;;;;;;22.45;13.50;;;;;;;;;;5031615;28;20026;-87
2022/12/09 10:04:18;;;;;;;23.90;14.02;;;;;;;;;;5033012;28;20069;-87
2022/12/09 10:06:45;;;;;;;20.35;11.88;;;;;;;;;;5031458;28;20064;-87
2022/12/09 10:09:23;;;;;;;21.20;13.23;;;;;;;;;;5031600;28;20048;-87
2022/12/09 10:11:51;;;;;;;19.77;12.07;;;;;;;;;;5012890;28;20042;-87
2022/12/09 10:14:20;;;;;;;22.83;12.95;;;;;;;;;;5022967;28;20063;-87
2022/12/09 10:17:03;;;;;;;20.55;13.02;;;;;;;;;;5031364;28;20045;-86
2022/12/09 10:19:34;;;;;;;21.52;13.20;;;;;;;;;;5022073;28;20108;-86
2022/12/09 10:22:08;;;;;;;18.05;12.02;;;;;;;;;;5016484;28;20026;-88
2022/12/09 10:24:33;;;;;;;21.63;13.55;;;;;;;;;;5020635;28;20042;-87
2022/12/09 10:27:09;;;;;;;22.73;13.60;;;;;;;;;;5028407;28;20513;-87
2022/12/09 10:29:53;;;;;;;17.58;12.50;;;;;;;;;;5026138;28;20041;-88
2022/12/09 10:32:19;;;;;;;21.85;13.43;;;;;;;;;;5042529;28;20033;-87
2022/12/09 10:34:46;;;;;;;20.75;13.38;;;;;;;;;;5033852;28;20710;-87
2022/12/09 10:37:24;;;;;;;18.90;12.52;;;;;;;;;;5031082;28;20037;-89
2022/12/09 10:39:56;;;;;;;20.58;12.98;;;;;;;;;;5031020;28;20049;-87
2022/12/09 10:45:05;;;;;;;21.50;12.88;;;;;;;;;;5029116;28;19964;-87
2022/12/09 10:47:30;;;;;;;21.38;13.27;;;;;;;;;;5021691;28;20564;-89
2022/12/09 10:49:58;;;;;;;19.35;12.55;;;;;;;;;;5026424;28;20072;-87
2022/12/09 10:52:25;;;;;;;21.40;12.82;;;;;;;;;;5023127;28;20029;-88
2022/12/09 10:54:50;;;;;;;21.60;13.20;;;;;;;;;;5028840;28;20069;-87
2022/12/09 10:57:15;;;;;;;18.65;12.40;;;;;;;;;;5027966;28;20064;-89
2022/12/09 10:59:54;;;;;;;18.98;12.45;;;;;;;;;;5026995;28;20404;-89
2022/12/09 11:02:19;;;;;;;21.52;12.85;;;;;;;;;;5027417;28;20073;-88
2022/12/09 11:04:45;;;;;;;19.48;12.50;;;;;;;;;;5026588;28;20084;-88
2022/12/09 11:07:10;;;;;;;20.83;12.93;;;;;;;;;;5025177;28;20137;-87
2022/12/09 11:09:39;;;;;;;18.85;12.13;;;;;;;;;;5027879;28;20046;-88
2022/12/09 11:12:06;;;;;;;19.48;12.23;;;;;;;;;;5023994;28;20080;-89
2022/12/09 11:14:38;;;;;;;18.63;12.02;;;;;;;;;;5020415;28;20083;-87
2022/12/09 11:17:15;;;;;;;21.27;12.35;;;;;;;;;;5022316;28;20034;-88
2022/12/09 11:19:41;;;;;;;19.55;12.32;;;;;;;;;;5026000;28;20041;-89
2022/12/09 11:22:13;;;;;;;19.95;13.15;;;;;;;;;;5026099;28;20116;-88
2022/12/09 11:24:39;;;;;;;19.15;12.85;;;;;;;;;;5023281;28;20042;-88
2022/12/09 11:27:21;;;;;;;20.42;12.27;;;;;;;;;;5025601;28;20043;-90
2022/12/09 11:29:46;;;;;;;21.63;13.38;;;;;;;;;;5026808;28;20037;-89
2022/12/09 11:32:12;;;;;;;22.30;13.05;;;;;;;;;;5021837;28;20156;-88
2022/12/09 11:34:37;;;;;;;22.60;13.55;;;;;;;;;;5022489;28;20038;-88
2022/12/09 11:37:03;;;;;;;20.23;12.77;;;;;;;;;;5025367;28;20069;-88
2022/12/09 11:39:34;;;;;;;19.87;12.70;;;;;;;;;;5022569;28;20306;-88
2022/12/09 11:42:14;;;;;;;20.23;12.85;;;;;;;;;;5025036;28;20521;-88
2022/12/09 11:44:55;;;;;;;19.33;12.60;;;;;;;;;;5022619;28;20037;-89
2022/12/09 11:47:24;;;;;;;19.13;12.68;;;;;;;;;;5025255;28;21152;-87
2022/12/09 11:49:51;;;;;;;20.08;12.23;;;;;;;;;;5025791;28;20034;-87
2022/12/09 11:52:16;;;;;;;20.75;12.23;;;;;;;;;;5023006;28;20094;-87
2022/12/09 11:55:00;;;;;;;20.50;12.90;;;;;;;;;;5026279;28;20456;-88
2022/12/09 11:57:25;;;;;;;20.13;11.80;;;;;;;;;;5021091;28;20099;-87
2022/12/09 11:59:54;;;;;;;22.98;13.00;;;;;;;;;;5025870;28;20461;-88
2022/12/09 12:02:22;;;;;;;20.58;12.40;;;;;;;;;;5023096;28;20045;-87
2022/12/09 12:04:47;;;;;;;20.27;13.07;;;;;;;;;;5023628;28;20044;-88
2022/12/09 12:07:14;;;;;;;18.73;11.90;;;;;;;;;;5024537;28;20576;-87
2022/12/09 12:09:42;;;;;;;19.38;12.60;;;;;;;;;;5027332;28;20068;-88
2022/12/09 12:12:10;;;;;;;19.33;12.27;;;;;;;;;;5014457;28;20049;-87
2022/12/09 12:14:36;;;;;;;19.45;12.98;;;;;;;;;;5026889;28;20046;-87
2022/12/09 12:17:13;;;;;;;17.52;11.95;;;;;;;;;;5026249;28;20428;-89
2022/12/09 12:19:39;;;;;;;20.15;12.18;;;;;;;;;;5019307;28;20049;-87
2022/12/09 12:22:11;;;;;;;21.35;13.10;;;;;;;;;;5025084;28;20104;-87
2022/12/09 12:24:55;;;;;;;19.33;12.23;;;;;;;;;;5021612;28;20038;-88
2022/12/09 12:27:23;;;;;;;16.20;10.95;;;;;;;;;;5022428;28;20037;-87
2022/12/09 12:29:54;;;;;;;17.90;11.40;;;;;;;;;;5023513;28;20100;-88
2022/12/09 12:32:24;;;;;;;19.42;11.90;;;;;;;;;;5026528;28;20044;-87
2022/12/09 12:35:12;;;;;;;21.00;13.23;;;;;;;;;;5028857;28;20060;-87
2022/12/09 12:37:56;;;;;;;19.25;12.23;;;;;;;;;;5019721;28;20096;-88
2022/12/09 12:40:34;;;;;;;21.15;13.43;;;;;;;;;;5020489;28;20041;-87
2022/12/09 12:46:17;;;;;;;18.45;12.50;;;;;;;;;;4987707;28;20046;-89
2022/12/09 12:48:58;;;;;;;18.13;12.15;;;;;;;;;;5024840;28;20033;-87
2022/12/09 12:51:33;;;;;;;19.70;12.23;;;;;;;;;;5028379;28;20041;-89
2022/12/09 12:54:14;;;;;;;18.13;11.90;;;;;;;;;;5020929;28;20033;-87
2022/12/09 12:56:40;;;;;;;;;;;;;;;;;;5026193;28;20069;-87
2022/12/09 12:59:05;;;;;;;;;;;;;;;;;;5028476;28;19959;-87
2022/12/09 13:01:36;;;;;;;20.60;12.60;;;;;;;;;;5026814;28;20091;-87
2022/12/09 13:04:06;;;;;;;19.92;12.02;;;;;;;;;;5026881;28;20632;-87
2022/12/09 13:06:40;;;;;;;18.50;11.45;;;;;;;;;;5026404;28;20053;-88
2022/12/09 13:09:10;;;;;;;17.58;11.48;;;;;;;;;;5026978;28;20056;-87
2022/12/09 13:11:51;;;;;;;15.98;10.45;;;;;;;;;;5026946;28;20470;-87
2022/12/09 13:14:22;;;;;;;15.43;10.07;;;;;;;;;;5026432;28;20041;-87
2022/12/09 13:16:48;;;;;;;17.02;11.02;;;;;;;;;;5026420;28;20042;-87
2022/12/09 13:19:19;;;;;;;16.70;10.82;;;;;;;;;;5027682;28;20589;-87
2022/12/09 13:21:44;;;;;;;17.77;11.10;;;;;;;;;;5025031;28;20030;-87
2022/12/09 13:24:28;;;;;;;14.93;9.90;;;;;;;;;;5016616;28;20132;-86
2022/12/09 13:27:12;;;;;;;17.50;10.82;;;;;;;;;;5024224;28;20435;-88
2022/12/09 13:29:37;;;;;;;16.88;11.02;;;;;;;;;;5024105;28;20045;-88
2022/12/09 13:32:09;;;;;;;15.17;10.20;;;;;;;;;;5016620;28;20041;-88
2022/12/09 13:34:34;;;;;;;16.15;10.05;;;;;;;;;;5021063;28;20569;-88
2022/12/09 13:36:59;;;;;;;13.73;9.27;;;;;;;;;;5015590;28;20046;-87
2022/12/09 13:39:40;;;;;;;14.90;10.38;;;;;;;;;;5027229;28;20045;-87
2022/12/09 13:42:52;;;;;;;21.75;13.48;;;;;;;;;;5022183;28;20037;-87
2022/12/09 13:45:18;;;;;;;18.95;11.55;;;;;;;;;;5006455;28;20042;-88
2022/12/09 13:47:43;;;;;;;16.03;10.57;;;;;;;;;;5029245;28;20041;-87
2022/12/09 13:50:27;;;;;;;18.67;11.50;;;;;;;;;;5029477;28;20124;-88
2022/12/09 13:52:56;;;;;;;19.38;12.15;;;;;;;;;;5023391;28;20096;-89
2022/12/09 13:55:28;;;;;;;16.45;10.57;;;;;;;;;;5028042;28;20049;-88
2022/12/09 13:58:12;;;;;;;21.13;12.65;;;;;;;;;;5032732;28;20052;-88
2022/12/09 14:00:40;;;;;;;19.13;11.05;;;;;;;;;;5034294;28;20041;-87
2022/12/09 14:03:30;;;;;;;13.98;9.07;;;;;;;;;;5044615;28;20034;-91
2022/12/09 14:06:19;;;;;;;15.93;10.20;;;;;;;;;;5053386;28;20037;-89
2022/12/09 14:08:48;;;;;;;17.27;11.25;;;;;;;;;;5032310;28;20091;-90
2022/12/09 14:11:34;;;;;;;15.95;10.30;;;;;;;;;;5033406;28;20128;-87
2022/12/09 14:14:18;;;;;;;17.52;10.80;;;;;;;;;;5021376;28;20116;-91
2022/12/09 14:16:44;;;;;;;15.98;10.57;;;;;;;;;;5033022;28;20044;-91
2022/12/09 14:19:25;;;;;;;18.25;11.63;;;;;;;;;;5031937;28;20025;-87
2022/12/09 14:21:50;;;;;;;;;;;;;;;;;;5024239;28;20629;-88
2022/12/09 14:24:16;;;;;;;17.05;10.55;;;;;;;;;;5032321;28;19913;-87
2022/12/09 14:26:57;;;;;;;17.38;10.90;;;;;;;;;;5032376;28;20103;-87
2022/12/09 14:29:41;;;;;;;17.13;11.10;;;;;;;;;;5022000;28;20045;-88